• Join FlightAware (Why Join?)
  • Login
  • US Flag GB Flag 
14:59 EDT


 

Airport Tracker/Info


-or-


 

Live Flight TrackerFlight Track Log ✈ N449ND ✈ 07-Jan-2014 ✈ KFPR - KFPR

Flight Track Log - Related Links

Times and Time Zones

All times are in EST time to prevent confusion due to time zone crossing. See the N449ND flight status page for this flight to view local times or setup timezone preferences in your user account.

Time Position Orientation Groundspeed Altitude Reporting Facility
EST Latitude Longitude Course Direction KTS MPH feet Rate Location/Type
13:48 27.5019 -80.3781 328° Northwest 89 102 600  Level Miami Center
13:49 27.4972 -80.4014 257° West 77 89 3,000 1,200 Climbing Miami Center
13:50 27.4903 -80.4269 253° West 84 97 3,000  Level Miami Center
13:51 27.4853 -80.4550 259° West 89 102 3,000  Level Miami Center
13:52 27.4803 -80.4875 260° West 89 102 3,000  Level Miami Center
13:53 27.4975 -80.3726 328° Northwest  Level Estimated
13:53 27.4733 -80.5200 256° West 108 124 3,100  Level Miami Center
13:54 27.4464 -80.5144 170° South 80 92 3,100  Level Miami Center
13:55 27.4281 -80.4928 134° Southeast 86 99 3,100  Level Miami Center
13:56 27.4078 -80.4711 137° Southeast 102 117 3,100  Level Miami Center
13:57 27.3875 -80.4472 134° Southeast 102 117 3,100  Level Miami Center
13:58 27.3650 -80.4256 139° Southeast 102 117 3,100  Level Miami Center
13:59 27.3489 -80.3992 124° Southeast 107 123 3,100  Level Miami Center
14:00 27.3328 -80.3800 133° Southeast 102 117 3,100  Level Miami Center
14:01 27.3125 -80.3561 134° Southeast 97 112 3,100 -480 Level Miami Center
14:02 27.2922 -80.3319 133° Southeast 97 112 2,200 -600 Descending Miami Center
14:03 27.2678 -80.3056 136° Southeast 107 123 2,000 -120 Descending Miami Center
14:04 27.2558 -80.2797 117° Southeast 112 129 2,000  Level Miami Center
14:05 27.2708 -80.2661 39° Northeast 65 75 2,000  Level Miami Center
14:06 27.2858 -80.2478 47° Northeast 65 75 2,100  Climbing Miami Center
14:07 27.3050 -80.2342 32° Northeast 70 81 2,100 -60 Level Miami Center
14:08 27.3219 -80.2208 35° Northeast 70 81 2,000 -60 Descending Miami Center
14:09 27.3347 -80.2069 44° Northeast 70 81 2,000  Level Miami Center
14:10 27.3514 -80.2122 344° North 52 60 2,000  Level Miami Center
14:11 27.3675 -80.2336 310° West 63 72 2,100  Climbing Miami Center
14:12 27.3817 -80.2506 313° West 75 86 2,000  Descending Miami Center
14:13 27.4000 -80.2697 317° Northwest 75 86 2,100  Climbing Miami Center
14:14 27.4144 -80.2797 328° Northwest 75 86 2,100 -180 Level Miami Center
14:15 27.4244 -80.2964 304° West 64 74 1,800 -480 Descending Miami Center
14:16 27.4408 -80.3108 322° Northwest 64 74 1,200 -600 Descending Miami Center
14:17 27.4531 -80.3253 314° West 64 74 700 -300 Descending Miami Center
14:18 27.4672 -80.3397 318° Northwest 70 81 700 -120 Level Miami Center
14:19 27.4836 -80.3564 318° Northwest 70 81 500  Descending Miami Center
14:20 27.4956 -80.3756 305° West 70 81 800 480 Climbing Miami Center
14:21 27.4844 -80.4128 251° West 89 102 1,700 900 Climbing Miami Center
14:22 27.4711 -80.4450 245° Southwest 103 119 3,000 600 Climbing Miami Center
14:23 27.4597 -80.4775 248° West 108 124 3,000  Level Miami Center
14:24 27.4486 -80.5100 249° West 113 130 3,100  Climbing Miami Center
14:25 27.4353 -80.5400 243° Southwest 113 130 3,100  Level Miami Center
14:26 27.4239 -80.5747 250° West 113 130 3,100  Level Miami Center
14:27 27.4042 -80.6067 235° Southwest 113 130 3,100  Level Miami Center
14:28 27.3750 -80.6106 187° South 107 123 3,100  Level Miami Center
14:29 27.3586 -80.6006 152° Southeast 94 108 3,100  Level Miami Center
14:30 27.3794 -80.6036 353° North 10 12 3,100 -60 Level Miami Center
14:31 27.3983 -80.5972 17° North 59 68 3,000 -60 Descending Miami Center
14:32 27.4214 -80.5933 North 78 90 3,000  Level Miami Center
14:33 27.4072 -80.5789 138° Southeast 51 59 3,100  Climbing Miami Center
14:34 27.3758 -80.5800 182° South 76 87 3,000  Descending Miami Center
14:35 27.3486 -80.5744 170° South 105 121 3,100  Climbing Miami Center
14:36 27.3356 -80.5997 240° Southwest 98 113 3,100  Level Miami Center
14:37 27.3608 -80.5958 North 21 24 3,100  Level Miami Center
14:38 27.3836 -80.5944 North 69 79 3,100 -60 Level Miami Center
14:39 27.4067 -80.5953 358° North 84 97 3,000  Descending Miami Center
14:40 27.4236 -80.5864 25° Northeast 76 87 3,100  Climbing Miami Center
14:41 27.3967 -80.5739 158° South 59 68 3,000  Descending Miami Center
14:42 27.3656 -80.5728 178° South 103 119 3,100  Climbing Miami Center
14:43 27.3428 -80.5603 154° Southeast 90 104 3,000 -60 Descending Miami Center
14:44 27.3456 -80.5394 81° East 90 104 3,000  Level Miami Center
14:45 27.3442 -80.5114 93° East 84 97 3,000  Level Miami Center
14:46 27.3428 -80.4831 93° East 84 97 3,000  Level Miami Center
14:47 27.3433 -80.4575 89° East 84 97 3,100  Climbing Miami Center
14:48 27.3442 -80.4294 88° East 84 97 3,000  Descending Miami Center
14:49 27.3444 -80.4083 89° East 84 97 3,100  Climbing Miami Center
14:50 27.3453 -80.3803 88° East 84 97 3,100 -60 Level Miami Center
14:51 27.3458 -80.3525 89° East 89 102 3,000  Descending Miami Center
14:52 27.3444 -80.3242 93° East 84 97 3,100  Climbing Miami Center
14:53 27.3450 -80.2986 89° East 84 97 3,100 -120 Level Miami Center
14:54 27.3436 -80.2753 94° East 84 97 2,900 -600 Descending Miami Center
14:55 27.3464 -80.2425 85° East 89 102 2,000 -480 Descending Miami Center
14:56 27.3428 -80.2167 99° East 84 97 2,000 60 Level Miami Center
14:57 27.3436 -80.1908 88° East 84 97 2,200  Climbing Miami Center
14:58 27.3294 -80.1625 119° Southeast 90 104 2,100 -180 Descending Miami Center
14:59 27.3064 -80.1736 203° Southwest 102 117 1,900  Descending Miami Center
15:00 27.3228 -80.1811 338° Northwest 32 37 2,100 60 Climbing Miami Center
15:01 27.3392 -80.1978 318° Northwest 69 79 2,100  Level Miami Center
15:02 27.3556 -80.2147 317° Northwest 80 92 2,100  Level Miami Center
15:03 27.3697 -80.2292 318° Northwest 85 98 2,100  Level Miami Center
15:04 27.3858 -80.2506 310° West 85 98 2,100  Level Miami Center
15:05 27.4044 -80.2653 325° Northwest 85 98 2,100  Level Miami Center
15:06 27.4164 -80.2844 305° West 85 98 2,100 -120 Level Miami Center
15:07 27.4306 -80.3033 310° West 80 92 1,900 -540 Descending Miami Center
15:08 27.4450 -80.3133 328° Northwest 74 85 1,100 -600 Descending Miami Center
15:09 27.4569 -80.3322 305° West 74 85 800 -300 Descending Miami Center
15:10 27.4714 -80.3467 318° Northwest 64 74 600 -240 Descending Miami Center
15:12 27.4833 -80.3667 North  Level FlightAware Approximate
15:19 27.4975 -80.3726 North  Level Estimated